Time;durP1;ratioP1;P1;durP2;ratioP2;P2;SDS_P1;SDS_P2;PMS_P1;PMS_P2;Temp;Humidity;BMP_temperature;BMP_pressure;BME280_temperature;BME280_humidity;BME280_pressure;Samples;Min_cycle;Max_cycle;Signal;HPM_P1;HPM_P2
2023/05/20 00:02:23;;;;;;;7.2;5.9;;;;;;;;;;;;;
2023/05/20 00:04:48;;;;;;;8.3;6.5;;;;;;;;;;;;;
2023/05/20 00:07:14;;;;;;;8.1;6.4;;;;;;;;;;;;;
2023/05/20 00:09:39;;;;;;;8.3;6.3;;;;;;;;;;;;;
2023/05/20 00:12:05;;;;;;;9.2;6.9;;;;;;;;;;;;;
2023/05/20 00:14:30;;;;;;;8.3;5.9;;;;;;;;;;;;;
2023/05/20 00:16:55;;;;;;;7;5.6;;;;;;;;;;;;;
2023/05/20 00:19:20;;;;;;;8.3;6;;;;;;;;;;;;;
2023/05/20 00:21:45;;;;;;;7.1;6;;;;;;;;;;;;;
2023/05/20 00:24:10;;;;;;;6.7;5.7;;;;;;;;;;;;;
2023/05/20 00:26:36;;;;;;;7.5;5.6;;;;;;;;;;;;;
2023/05/20 00:29:01;;;;;;;10.2;6.5;;;;;;;;;;;;;
2023/05/20 00:31:26;;;;;;;7.3;5.7;;;;;;;;;;;;;
2023/05/20 00:33:51;;;;;;;8;6;;;;;;;;;;;;;
2023/05/20 00:36:16;;;;;;;8.2;6.2;;;;;;;;;;;;;
2023/05/20 00:38:41;;;;;;;8.3;6.2;;;;;;;;;;;;;
2023/05/20 00:41:06;;;;;;;7.8;6.1;;;;;;;;;;;;;
2023/05/20 00:43:31;;;;;;;7.7;6.2;;;;;;;;;;;;;
2023/05/20 00:45:57;;;;;;;7.3;5.6;;;;;;;;;;;;;
2023/05/20 00:48:22;;;;;;;6.7;5.7;;;;;;;;;;;;;
2023/05/20 00:50:48;;;;;;;6.2;4.8;;;;;;;;;;;;;
2023/05/20 00:53:13;;;;;;;5.7;5.1;;;;;;;;;;;;;
2023/05/20 00:55:41;;;;;;;5.7;4.6;;;;;;;;;;;;;
2023/05/20 00:58:06;;;;;;;8.1;5.9;;;;;;;;;;;;;
2023/05/20 01:00:31;;;;;;;6.5;5;;;;;;;;;;;;;
2023/05/20 01:02:57;;;;;;;5.8;5.2;;;;;;;;;;;;;
2023/05/20 01:05:22;;;;;;;6.9;5.6;;;;;;;;;;;;;
2023/05/20 01:07:47;;;;;;;7.6;5.3;;;;;;;;;;;;;
2023/05/20 01:10:15;;;;;;;6;5.1;;;;;;;;;;;;;
2023/05/20 01:12:40;;;;;;;7.6;5.6;;;;;;;;;;;;;
2023/05/20 01:15:05;;;;;;;8.1;5.8;;;;;;;;;;;;;
2023/05/20 01:17:31;;;;;;;6.2;5.3;;;;;;;;;;;;;
2023/05/20 01:19:56;;;;;;;8.2;5.1;;;;;;;;;;;;;
2023/05/20 01:22:21;;;;;;;6.6;5.1;;;;;;;;;;;;;
2023/05/20 01:24:47;;;;;;;6.2;5.5;;;;;;;;;;;;;
2023/05/20 01:27:12;;;;;;;7;5.6;;;;;;;;;;;;;
2023/05/20 01:29:37;;;;;;;5.6;5;;;;;;;;;;;;;
2023/05/20 01:32:02;;;;;;;6.3;4.8;;;;;;;;;;;;;
2023/05/20 01:34:27;;;;;;;5.9;4.6;;;;;;;;;;;;;
2023/05/20 01:36:54;;;;;;;6.1;4.7;;;;;;;;;;;;;
2023/05/20 01:39:19;;;;;;;5.1;4.6;;;;;;;;;;;;;
2023/05/20 01:41:44;;;;;;;4.5;4.1;;;;;;;;;;;;;
2023/05/20 01:44:09;;;;;;;5.3;4.3;;;;;;;;;;;;;
2023/05/20 01:46:36;;;;;;;5;4.5;;;;;;;;;;;;;
2023/05/20 01:49:01;;;;;;;5.8;4.8;;;;;;;;;;;;;
2023/05/20 01:51:29;;;;;;;5.6;5;;;;;;;;;;;;;
2023/05/20 01:53:52;;;;;;;6.6;5.1;;;;;;;;;;;;;
2023/05/20 01:56:18;;;;;;;6.9;5.1;;;;;;;;;;;;;
2023/05/20 01:58:43;;;;;;;6.3;4.7;;;;;;;;;;;;;
2023/05/20 02:01:09;;;;;;;5.6;4.9;;;;;;;;;;;;;
2023/05/20 02:03:34;;;;;;;6.8;4.8;;;;;;;;;;;;;
2023/05/20 02:06:00;;;;;;;6.2;5;;;;;;;;;;;;;
2023/05/20 02:08:25;;;;;;;5.6;5;;;;;;;;;;;;;
2023/05/20 02:10:51;;;;;;;5.7;4.8;;;;;;;;;;;;;
2023/05/20 02:13:16;;;;;;;6.2;5.1;;;;;;;;;;;;;
2023/05/20 02:15:43;;;;;;;4.9;4.1;;;;;;;;;;;;;
2023/05/20 02:18:08;;;;;;;5.8;5;;;;;;;;;;;;;
2023/05/20 02:20:34;;;;;;;5.4;4.9;;;;;;;;;;;;;
2023/05/20 02:22:59;;;;;;;5.8;4.8;;;;;;;;;;;;;
2023/05/20 02:25:25;;;;;;;5.8;4.8;;;;;;;;;;;;;
2023/05/20 02:27:50;;;;;;;5.6;4.8;;;;;;;;;;;;;
2023/05/20 02:30:17;;;;;;;6.5;4.9;;;;;;;;;;;;;
2023/05/20 02:32:42;;;;;;;6;4.4;;;;;;;;;;;;;
2023/05/20 02:35:08;;;;;;;5.1;4.3;;;;;;;;;;;;;
2023/05/20 02:37:33;;;;;;;5.7;4.3;;;;;;;;;;;;;
2023/05/20 02:40:00;;;;;;;5.5;4.5;;;;;;;;;;;;;
2023/05/20 02:42:24;;;;;;;7.1;5.4;;;;;;;;;;;;;
2023/05/20 02:44:52;;;;;;;6.2;5.2;;;;;;;;;;;;;
2023/05/20 02:47:16;;;;;;;6.7;5.2;;;;;;;;;;;;;
2023/05/20 02:50:13;;;;;;;5.7;4.5;;;;;;;;;;;;;
2023/05/20 02:52:41;;;;;;;4.9;4.4;;;;;;;;;;;;;
2023/05/20 02:55:06;;;;;;;6.8;4.5;;;;;;;;;;;;;
2023/05/20 02:57:32;;;;;;;5.2;4.4;;;;;;;;;;;;;
2023/05/20 02:59:57;;;;;;;5.6;4.7;;;;;;;;;;;;;
2023/05/20 03:02:22;;;;;;;6;5;;;;;;;;;;;;;
2023/05/20 03:04:47;;;;;;;5.1;4.4;;;;;;;;;;;;;
2023/05/20 03:07:13;;;;;;;6.2;4.3;;;;;;;;;;;;;
2023/05/20 03:09:38;;;;;;;4.7;4.2;;;;;;;;;;;;;
2023/05/20 03:12:04;;;;;;;5.3;4.5;;;;;;;;;;;;;
2023/05/20 03:14:29;;;;;;;4.7;4;;;;;;;;;;;;;
2023/05/20 03:16:56;;;;;;;6.8;4.8;;;;;;;;;;;;;
2023/05/20 03:19:22;;;;;;;7.1;4.8;;;;;;;;;;;;;
2023/05/20 03:21:47;;;;;;;5.3;4.1;;;;;;;;;;;;;
2023/05/20 03:24:12;;;;;;;5.5;4.3;;;;;;;;;;;;;
2023/05/20 03:26:41;;;;;;;6.2;4.6;;;;;;;;;;;;;
2023/05/20 03:29:02;;;;;;;5.2;4.3;;;;;;;;;;;;;
2023/05/20 03:31:29;;;;;;;6.1;4.3;;;;;;;;;;;;;
2023/05/20 03:33:54;;;;;;;4.9;3.9;;;;;;;;;;;;;
2023/05/20 03:36:22;;;;;;;4.6;4;;;;;;;;;;;;;
2023/05/20 03:38:47;;;;;;;4.5;3.9;;;;;;;;;;;;;
2023/05/20 03:41:14;;;;;;;4.4;4;;;;;;;;;;;;;
2023/05/20 03:43:39;;;;;;;4.6;4.2;;;;;;;;;;;;;
2023/05/20 03:46:04;;;;;;;5.2;4.1;;;;;;;;;;;;;
2023/05/20 03:48:29;;;;;;;4.9;3.9;;;;;;;;;;;;;
2023/05/20 03:50:55;;;;;;;4.2;3.8;;;;;;;;;;;;;
2023/05/20 03:53:20;;;;;;;4.9;4.3;;;;;;;;;;;;;
2023/05/20 03:55:46;;;;;;;4.8;4.2;;;;;;;;;;;;;
2023/05/20 03:58:12;;;;;;;4.5;3.9;;;;;;;;;;;;;
2023/05/20 04:02:32;;;;;;;4.9;4;;;;;;;9.83;95.91309;936.5991;;;;
2023/05/20 04:05:00;;;;;;;4.2;3.8;;;;;;;9.93;95.31543;936.5744;;;;
2023/05/20 04:07:29;;;;;;;4.9;4;;;;;;;9.95;94.92188;936.5579;;;;
2023/05/20 04:10:02;;;;;;;4.8;3.8;;;;;;;9.93;94.8252;936.6269;;;;
2023/05/20 04:12:31;;;;;;;4.7;3.9;;;;;;;10.02;94.58496;936.6519;;;;
2023/05/20 04:14:54;;;;;;;4.8;4.1;;;;;;;10;94.45508;936.5926;;;;
2023/05/20 04:17:23;;;;;;;5.5;4.1;;;;;;;10.05;93.93066;936.6132;;;;
2023/05/20 04:19:48;;;;;;;4.7;4.2;;;;;;;10.06;93.29199;936.6108;;;;
2023/05/20 04:25:49;;;;;;;4.1;3.7;;;;;;;10.06;93.31543;936.5687;;;;
2023/05/20 04:28:22;;;;;;;5.5;4.1;;;;;;;10.15;93.2793;936.5528;;;;
2023/05/20 04:30:44;;;;;;;4.6;3.8;;;;;;;10.16;93.40723;936.4955;;;;
2023/05/20 04:33:13;;;;;;;4.1;3.7;;;;;;;10.15;93.33496;936.5248;;;;
2023/05/20 04:35:40;;;;;;;4.4;3.8;;;;;;;10.24;92.6123;936.6551;;;;
2023/05/20 04:38:02;;;;;;;4.7;3.6;;;;;;;10.29;92.28223;936.6229;;;;
2023/05/20 04:40:35;;;;;;;4.6;3.7;;;;;;;10.31;92.44531;936.6509;;;;
2023/05/20 04:43:05;;;;;;;5.6;4.1;;;;;;;10.22;93.08984;936.6406;;;;
2023/05/20 04:48:42;;;;;;;4.7;3.8;;;;;;;10.28;93.66016;936.6299;;;;
2023/05/20 04:51:12;;;;;;;5.1;3.8;;;;;;;10.42;93.46191;936.6583;;;;
2023/05/20 04:53:42;;;;;;;4.5;4.1;;;;;;;10.56;93.49316;936.6855;;;;
2023/05/20 04:56:12;;;;;;;5;3.8;;;;;;;10.58;92.04883;936.6443;;;;
2023/05/20 04:58:36;;;;;;;3.5;3.2;;;;;;;10.44;92.74805;936.575;;;;
2023/05/20 05:01:05;;;;;;;4.5;3.4;;;;;;;10.6;92.96387;936.5736;;;;
2023/05/20 05:03:29;;;;;;;5.9;3.9;;;;;;;10.77;92.47363;936.5383;;;;
2023/05/20 05:05:57;;;;;;;4.3;3.4;;;;;;;10.97;91.49121;936.5349;;;;
2023/05/20 05:08:22;;;;;;;6.8;4.2;;;;;;;11.17;91.37109;936.5767;;;;
2023/05/20 05:10:49;;;;;;;4;3.6;;;;;;;11.43;89.93945;936.524;;;;
2023/05/20 05:13:14;;;;;;;3.7;2.9;;;;;;;11.39;88.38477;936.5291;;;;
2023/05/20 05:15:45;;;;;;;4.1;3.3;;;;;;;11.42;88.00586;936.481;;;;
2023/05/20 05:18:10;;;;;;;3.4;3;;;;;;;11.46;89.08691;936.4308;;;;
2023/05/20 05:20:41;;;;;;;3.5;3.2;;;;;;;11.6;88.75;936.4136;;;;
2023/05/20 05:23:06;;;;;;;3.3;3;;;;;;;11.58;88.08203;936.495;;;;
2023/05/20 05:25:33;;;;;;;3.6;3.3;;;;;;;11.64;88.47266;936.4723;;;;
2023/05/20 05:27:58;;;;;;;3.8;3.1;;;;;;;11.48;87.85449;936.4397;;;;
2023/05/20 05:30:23;;;;;;;3.4;2.9;;;;;;;11.42;88.46094;936.3383;;;;
2023/05/20 05:32:52;;;;;;;3.9;3;;;;;;;11.51;89.50977;936.3816;;;;
2023/05/20 05:35:22;;;;;;;3.4;2.9;;;;;;;11.36;88.17578;936.3162;;;;
2023/05/20 05:37:51;;;;;;;3.3;3;;;;;;;11.11;90.05664;936.307;;;;
2023/05/20 05:40:16;;;;;;;4.4;3.4;;;;;;;11.06;90.60547;936.3411;;;;
2023/05/20 05:42:44;;;;;;;4.6;3.3;;;;;;;11.35;90.86035;936.2915;;;;
2023/05/20 05:45:09;;;;;;;3.3;3;;;;;;;11.4;89.01855;936.2598;;;;
2023/05/20 05:47:38;;;;;;;3.2;2.9;;;;;;;11.16;90.62793;936.2459;;;;
2023/05/20 05:50:12;;;;;;;4.9;4.5;;;;;;;11.04;91.17285;936.1769;;;;
2023/05/20 05:52:40;;;;;;;3.6;3.3;;;;;;;11.28;91.69141;936.2115;;;;
2023/05/20 05:55:04;;;;;;;3.3;3;;;;;;;11.32;90.72852;936.1822;;;;
2023/05/20 05:57:34;;;;;;;3.7;3.1;;;;;;;11.68;90.76953;936.2514;;;;
2023/05/20 06:00:03;;;;;;;3.7;3.3;;;;;;;12.03;89.80078;936.2751;;;;
2023/05/20 06:02:27;;;;;;;4.2;3.2;;;;;;;12.16;87.29492;936.3054;;;;
2023/05/20 06:19:17;;;;;;;3.3;2.9;;;;;;;13.56;82.39063;936.3233;;;;
2023/05/20 06:21:43;;;;;;;2.9;2.6;;;;;;;13.7;80.96875;936.2772;;;;
2023/05/20 06:24:08;;;;;;;3.6;2.8;;;;;;;13.9;80.55566;936.2643;;;;
2023/05/20 06:26:35;;;;;;;3;2.5;;;;;;;14.45;79.58691;936.2573;;;;
2023/05/20 06:29:22;;;;;;;2.8;2.6;;;;;;;14.9;76.76367;936.2631;;;;
2023/05/20 06:31:51;;;;;;;2.2;2;;;;;;;15.13;74.11328;936.1711;;;;
2023/05/20 06:34:16;;;;;;;2.7;2.4;;;;;;;14.99;76.375;936.2325;;;;
2023/05/20 06:36:48;;;;;;;3.2;2.6;;;;;;;15.13;74.95703;936.1373;;;;
2023/05/20 06:39:17;;;;;;;2.7;2.4;;;;;;;15.06;75.06152;936.2224;;;;
2023/05/20 06:41:42;;;;;;;4.6;2.5;;;;;;;14.94;74.63574;936.2162;;;;
2023/05/20 06:44:07;;;;;;;3.1;2.8;;;;;;;15.09;75.43555;936.1692;;;;
2023/05/20 06:49:49;;;;;;;2.5;2.3;;;;;;;16.37;71.13086;936.1561;;;;
2023/05/20 06:52:15;;;;;;;2.5;2.3;;;;;;;17.35;67.81055;936.1512;;;;
2023/05/20 06:54:43;;;;;;;2.3;2.1;;;;;;;17.7;64.75488;936.12;;;;
2023/05/20 06:57:09;;;;;;;2.6;2.4;;;;;;;17.33;65.66309;936.1451;;;;
2023/05/20 06:59:35;;;;;;;2.7;2.2;;;;;;;17.65;64.01563;936.0748;;;;
2023/05/20 07:02:00;;;;;;;2.4;2.2;;;;;;;17.43;64.45996;936.0042;;;;
2023/05/20 07:04:28;;;;;;;2.6;2.4;;;;;;;17.28;67.42871;935.9274;;;;
2023/05/20 07:07:02;;;;;;;3;2.7;;;;;;;17.48;65.96289;935.9002;;;;
2023/05/20 07:09:31;;;;;;;2.8;2.6;;;;;;;18.67;64.1875;935.8234;;;;
2023/05/20 07:11:57;;;;;;;2.6;2.4;;;;;;;18.3;63.77344;935.7881;;;;
2023/05/20 07:14:23;;;;;;;2.6;2.3;;;;;;;18.78;63.19238;935.7009;;;;
2023/05/20 07:16:48;;;;;;;2.5;2.3;;;;;;;19.95;60.08105;935.6454;;;;
2023/05/20 07:19:16;;;;;;;3.4;2.5;;;;;;;20.8;55.90625;935.5764;;;;
2023/05/20 07:21:41;;;;;;;2.6;2.1;;;;;;;20.3;55.99414;935.5268;;;;
2023/05/20 07:24:09;;;;;;;2.2;2;;;;;;;21.26;53.64844;935.4869;;;;
2023/05/20 07:26:35;;;;;;;2.3;2.1;;;;;;;22.63;50.5625;935.4774;;;;
2023/05/20 07:29:01;;;;;;;2.3;2.1;;;;;;;22.82;51.66406;935.4025;;;;
2023/05/20 07:31:26;;;;;;;2.6;2.4;;;;;;;21.07;53.75488;935.5109;;;;
2023/05/20 07:33:52;;;;;;;2.4;2.1;;;;;;;20.83;55.47754;935.4754;;;;
2023/05/20 07:36:18;;;;;;;2.4;2.2;;;;;;;19.52;56.67676;935.4606;;;;
2023/05/20 07:38:44;;;;;;;3.6;2.6;;;;;;;18.64;60.9502;935.4264;;;;
2023/05/20 07:41:39;;;;;;;2.3;2.1;;;;;;;17.51;65.55078;935.3842;;;;
2023/05/20 07:44:10;;;;;;;3;2.5;;;;;;;17.96;64.44336;935.4097;;;;
2023/05/20 07:46:32;;;;;;;2.4;2.2;;;;;;;18.65;63.23047;935.4125;;;;
2023/05/20 07:49:33;;;;;;;4.1;2.2;;;;;;;19.88;60.50293;935.368;;;;
2023/05/20 07:52:02;;;;;;;3;1.9;;;;;;;21.06;55.06152;935.3074;;;;
2023/05/20 07:54:27;;;;;;;2.3;2.1;;;;;;;22.07;52.50391;935.3047;;;;
2023/05/20 07:56:54;;;;;;;2.4;1.8;;;;;;;21.47;53.45215;935.3069;;;;
2023/05/20 07:59:20;;;;;;;2.7;2;;;;;;;21.32;55.26953;935.2711;;;;
2023/05/20 08:01:45;;;;;;;2.4;2.2;;;;;;;22.7;51.4873;935.3097;;;;
2023/05/20 08:04:13;;;;;;;2.2;2;;;;;;;23.87;47.57324;935.2104;;;;
2023/05/20 08:06:38;;;;;;;3;2.2;;;;;;;22.85;50.5293;935.2902;;;;
2023/05/20 08:09:07;;;;;;;2.7;2;;;;;;;22.17;51.36621;935.2511;;;;
2023/05/20 08:11:32;;;;;;;2.3;1.9;;;;;;;22.05;51.79688;935.23;;;;
2023/05/20 08:13:58;;;;;;;2.4;2.1;;;;;;;21.75;51.36426;935.2424;;;;
2023/05/20 08:16:23;;;;;;;2.4;2.1;;;;;;;21.31;52.15527;935.2892;;;;
2023/05/20 08:18:51;;;;;;;2.5;1.7;;;;;;;21.07;53.54395;935.2841;;;;
2023/05/20 08:21:16;;;;;;;2.4;2.2;;;;;;;20.48;56.72949;935.291;;;;
2023/05/20 08:24:25;;;;;;;2.6;2.1;;;;;;;20.19;58.41016;935.3317;;;;
2023/05/20 08:26:50;;;;;;;2.3;2.1;;;;;;;20.27;57.62598;935.3942;;;;
2023/05/20 08:29:16;;;;;;;2.2;2;;;;;;;21.19;55.33594;935.323;;;;
2023/05/20 08:31:40;;;;;;;2.7;1.8;;;;;;;22.49;51.09766;935.2726;;;;
2023/05/20 08:34:06;;;;;;;2.2;2;;;;;;;23.09;51.94336;935.2681;;;;
2023/05/20 08:36:31;;;;;;;1.8;1.7;;;;;;;24;47.92871;935.276;;;;
2023/05/20 08:38:59;;;;;;;2;1.8;;;;;;;25.57;43.6084;935.2756;;;;
2023/05/20 08:41:25;;;;;;;3.2;1.9;;;;;;;25.75;43.73242;935.277;;;;
2023/05/20 08:43:52;;;;;;;2;1.8;;;;;;;24.25;45.32813;935.2852;;;;
2023/05/20 08:46:16;;;;;;;2.2;2;;;;;;;23.1;50.00586;935.2894;;;;
2023/05/20 08:48:42;;;;;;;3.6;2.3;;;;;;;22.55;52.17285;935.2662;;;;
2023/05/20 08:51:08;;;;;;;3.2;2.4;;;;;;;21.86;53.93262;935.2416;;;;
2023/05/20 08:53:33;;;;;;;2.9;2.2;;;;;;;22.63;50.90332;935.1934;;;;
2023/05/20 08:56:01;;;;;;;2.4;2.2;;;;;;;22.82;51.30078;935.1808;;;;
2023/05/20 08:58:27;;;;;;;2.8;2.2;;;;;;;23.32;50.38281;935.2173;;;;
2023/05/20 09:00:55;;;;;;;3;2.6;;;;;;;21.88;54.66113;935.1591;;;;
2023/05/20 09:03:20;;;;;;;2.5;2.3;;;;;;;21.89;54.54395;935.2269;;;;
2023/05/20 09:05:45;;;;;;;3.2;2;;;;;;;23.57;48.50586;935.1573;;;;
2023/05/20 09:08:12;;;;;;;2.3;1.9;;;;;;;24.34;46.82227;935.1833;;;;
2023/05/20 09:10:37;;;;;;;2.3;2.1;;;;;;;24.86;45.66211;935.123;;;;
2023/05/20 09:13:06;;;;;;;2.4;2.2;;;;;;;26.25;42.62012;935.0783;;;;
2023/05/20 09:15:31;;;;;;;2.7;2.3;;;;;;;26.44;42.6377;935.0676;;;;
2023/05/20 09:17:58;;;;;;;2.8;2.6;;;;;;;26.65;42.83594;934.9974;;;;
2023/05/20 09:20:24;;;;;;;2.8;2.2;;;;;;;26.65;42.86035;935.0271;;;;
2023/05/20 09:22:51;;;;;;;2.6;2.3;;;;;;;26.1;44.42773;935.0295;;;;
2023/05/20 09:25:17;;;;;;;2.8;2.2;;;;;;;25.04;47.20215;935.0536;;;;
2023/05/20 09:27:44;;;;;;;2.5;2.3;;;;;;;25.15;44.71191;934.9225;;;;
2023/05/20 09:30:11;;;;;;;2.7;2.4;;;;;;;23.47;50.91699;934.95;;;;
2023/05/20 09:32:38;;;;;;;2.9;2.6;;;;;;;23.02;50.94824;934.975;;;;
2023/05/20 09:35:05;;;;;;;2.9;2.6;;;;;;;23.34;50.36133;934.9437;;;;
2023/05/20 09:37:28;;;;;;;4.9;3.1;;;;;;;23.32;51.27539;934.9889;;;;
2023/05/20 09:39:55;;;;;;;6.8;3.3;;;;;;;23.46;52.29102;934.9785;;;;
2023/05/20 09:42:18;;;;;;;3.6;3.1;;;;;;;22.87;53.59473;935.0378;;;;
2023/05/20 09:44:44;;;;;;;4.3;3.2;;;;;;;22.7;54.39844;935.0069;;;;
2023/05/20 09:47:08;;;;;;;4.1;3.1;;;;;;;22.51;55.77051;935.0139;;;;
2023/05/20 09:49:37;;;;;;;4;3.3;;;;;;;23.55;52.25488;934.996;;;;
2023/05/20 09:52:02;;;;;;;4.1;3.3;;;;;;;23.69;51.35352;934.9763;;;;
2023/05/20 09:54:30;;;;;;;3.5;3.1;;;;;;;23.69;52.80078;934.9324;;;;
2023/05/20 09:56:56;;;;;;;3.3;3;;;;;;;23.46;51.57422;934.9001;;;;
2023/05/20 09:59:21;;;;;;;4.3;3.2;;;;;;;22.78;52.0127;934.8621;;;;
2023/05/20 10:01:46;;;;;;;4;3.5;;;;;;;22.41;53.81152;934.926;;;;
2023/05/20 10:04:15;;;;;;;3.9;3.5;;;;;;;22.34;54.02539;934.8828;;;;
2023/05/20 10:06:40;;;;;;;4.1;3.3;;;;;;;22.73;54.8125;934.845;;;;
2023/05/20 10:09:06;;;;;;;3.3;3;;;;;;;23.37;50.96484;934.7496;;;;
2023/05/20 10:11:30;;;;;;;6;3.4;;;;;;;23.71;51.03809;934.7939;;;;
2023/05/20 10:13:55;;;;;;;3.6;3.2;;;;;;;24.16;49.66504;934.7576;;;;
2023/05/20 10:16:22;;;;;;;5.3;3.6;;;;;;;24.39;50.5625;934.7851;;;;
2023/05/20 10:18:46;;;;;;;4;3.6;;;;;;;23.7;52.55469;934.7468;;;;
2023/05/20 10:21:11;;;;;;;3.9;3.5;;;;;;;23.01;54.33008;934.7147;;;;
2023/05/20 10:23:36;;;;;;;5.1;3.5;;;;;;;22.82;53.98828;934.6555;;;;
2023/05/20 10:26:02;;;;;;;3.5;3.2;;;;;;;22.79;54.6543;934.6442;;;;
2023/05/20 10:28:28;;;;;;;4.7;3.6;;;;;;;22.78;56.10938;934.6131;;;;
2023/05/20 10:30:53;;;;;;;4;3.6;;;;;;;22.58;56.95313;934.5769;;;;
2023/05/20 10:33:19;;;;;;;4.5;3.7;;;;;;;23.06;54.91211;934.6534;;;;
2023/05/20 10:35:44;;;;;;;4.2;3.7;;;;;;;23.31;52.16797;934.6101;;;;
2023/05/20 10:38:09;;;;;;;4.9;3.6;;;;;;;22.36;56.64355;934.5564;;;;
2023/05/20 10:40:34;;;;;;;3.9;3.5;;;;;;;22.4;57.33984;934.5338;;;;
2023/05/20 10:43:01;;;;;;;7.6;3.8;;;;;;;22.85;54.75586;934.4531;;;;
2023/05/20 10:45:26;;;;;;;4;3.3;;;;;;;22.7;56.94531;934.4606;;;;
2023/05/20 10:47:55;;;;;;;4.4;4;;;;;;;22.54;58.47266;934.4641;;;;
2023/05/20 10:50:20;;;;;;;5.9;3.6;;;;;;;22.81;55.2334;934.4966;;;;
2023/05/20 10:52:45;;;;;;;5.1;3.9;;;;;;;22.88;54.84277;934.4483;;;;
2023/05/20 10:55:16;;;;;;;4.1;3.4;;;;;;;22.67;54.19434;934.5067;;;;
2023/05/20 10:57:44;;;;;;;3.9;3.5;;;;;;;21.93;57.12695;934.5003;;;;
2023/05/20 11:00:09;;;;;;;4.8;3.9;;;;;;;21.7;59.37012;934.4872;;;;
2023/05/20 11:02:37;;;;;;;4.3;3.9;;;;;;;21.17;60.4209;934.5132;;;;
2023/05/20 11:05:03;;;;;;;5.4;3.5;;;;;;;21.5;58.03125;934.4838;;;;
2023/05/20 11:07:33;;;;;;;4.6;3.5;;;;;;;21.73;57.64063;934.4716;;;;
2023/05/20 11:10:00;;;;;;;4.5;4;;;;;;;21.76;59.09766;934.463;;;;
2023/05/20 11:12:26;;;;;;;4;3.6;;;;;;;22.07;58.19922;934.4622;;;;
2023/05/20 11:14:52;;;;;;;7.2;4.2;;;;;;;22.27;59.09473;934.4532;;;;
2023/05/20 11:17:20;;;;;;;4.3;3.5;;;;;;;22.45;59.22461;934.3461;;;;
2023/05/20 11:19:45;;;;;;;3.6;3.3;;;;;;;22.69;56.86133;934.3808;;;;
2023/05/20 11:22:10;;;;;;;5.5;4.1;;;;;;;22.68;57.22363;934.3195;;;;
2023/05/20 11:24:35;;;;;;;4.3;3.8;;;;;;;22.84;58.81738;934.3431;;;;
2023/05/20 11:27:03;;;;;;;4.8;3.8;;;;;;;23.12;55.85938;934.3577;;;;
2023/05/20 11:29:31;;;;;;;4.6;4.1;;;;;;;23;56.80664;934.3352;;;;
2023/05/20 11:31:53;;;;;;;4.9;3.8;;;;;;;22.55;61.56152;934.3173;;;;
2023/05/20 11:34:22;;;;;;;5.4;4.1;;;;;;;22.84;56.9502;934.2531;;;;
2023/05/20 11:36:49;;;;;;;4.2;3.8;;;;;;;22.66;58.90039;934.2279;;;;
2023/05/20 11:39:17;;;;;;;5.9;3.7;;;;;;;22.75;57.44531;934.2366;;;;
2023/05/20 11:41:44;;;;;;;5.3;3.6;;;;;;;22.77;56.41309;934.1386;;;;
2023/05/20 11:44:09;;;;;;;4.3;3.8;;;;;;;22.8;57.62598;934.2104;;;;
2023/05/20 11:46:37;;;;;;;4.1;3.7;;;;;;;22.66;57.96094;934.1702;;;;
2023/05/20 11:49:02;;;;;;;4.8;3.7;;;;;;;22.48;58.42969;934.2117;;;;
2023/05/20 11:51:31;;;;;;;4.7;3.9;;;;;;;22.49;58.60742;934.1431;;;;
2023/05/20 11:53:57;;;;;;;4.1;3.7;;;;;;;22.95;57.57617;934.0695;;;;
2023/05/20 11:56:23;;;;;;;5;3.7;;;;;;;23.32;56.66016;934.0902;;;;
2023/05/20 11:58:49;;;;;;;4.7;3.8;;;;;;;23.34;58.60156;934.0489;;;;
2023/05/20 12:01:17;;;;;;;4;3.5;;;;;;;22.92;58.40625;933.9683;;;;
2023/05/20 12:03:42;;;;;;;5;3.8;;;;;;;23.06;57.21387;934.0527;;;;
2023/05/20 12:06:10;;;;;;;4.2;3.4;;;;;;;23.43;55.96875;934.0115;;;;
2023/05/20 12:08:35;;;;;;;3.7;3.3;;;;;;;23.45;55.51172;934.0946;;;;
2023/05/20 12:11:01;;;;;;;4.1;3.4;;;;;;;23.13;56.38867;934.0209;;;;
2023/05/20 12:13:26;;;;;;;3.7;3.3;;;;;;;22.99;56.6875;934.0059;;;;
2023/05/20 12:15:55;;;;;;;4.3;3.4;;;;;;;22.86;57.63477;934.1033;;;;
2023/05/20 12:18:20;;;;;;;4.4;3.4;;;;;;;22.83;57.4082;934.0659;;;;
2023/05/20 12:20:45;;;;;;;4;3.6;;;;;;;23.01;58.35938;934.0814;;;;
2023/05/20 12:23:11;;;;;;;4.6;3.5;;;;;;;22.64;59.51855;934.0795;;;;
2023/05/20 12:25:38;;;;;;;4.6;3.8;;;;;;;22.83;56.98535;934.0365;;;;
2023/05/20 12:28:03;;;;;;;5;3.5;;;;;;;23.16;56.76855;934.0756;;;;
2023/05/20 12:30:30;;;;;;;4;3.4;;;;;;;23.24;56.14551;934.0697;;;;
2023/05/20 12:32:55;;;;;;;3.8;3.1;;;;;;;23.27;56.74707;933.9791;;;;
2023/05/20 12:35:23;;;;;;;4.7;3.5;;;;;;;23.27;55.39551;933.9512;;;;
2023/05/20 12:37:49;;;;;;;4.1;3.6;;;;;;;23.42;55.7666;933.9802;;;;
2023/05/20 12:40:20;;;;;;;5.1;3.7;;;;;;;23.46;55.91406;933.9769;;;;
2023/05/20 12:42:50;;;;;;;3.8;3.3;;;;;;;23.54;56.22949;933.9285;;;;
2023/05/20 12:45:16;;;;;;;4.3;3.5;;;;;;;23.65;56.09082;933.9409;;;;
2023/05/20 12:47:43;;;;;;;3.8;3.2;;;;;;;23.68;54.98828;933.9055;;;;
2023/05/20 12:50:08;;;;;;;3.4;2.9;;;;;;;23.92;54.25293;933.892;;;;
2023/05/20 12:52:33;;;;;;;3.4;3.1;;;;;;;24.13;54.85547;933.8097;;;;
2023/05/20 12:54:59;;;;;;;4.7;3.2;;;;;;;24.34;52.80762;933.7519;;;;
2023/05/20 12:57:24;;;;;;;3.5;3.2;;;;;;;24.22;52.42773;933.674;;;;
2023/05/20 12:59:51;;;;;;;3.4;3.1;;;;;;;24.15;53.3623;933.6939;;;;
2023/05/20 13:02:16;;;;;;;3.7;3.3;;;;;;;24.47;53.97754;933.7089;;;;
2023/05/20 13:04:45;;;;;;;3.5;3.2;;;;;;;24.5;52.55566;933.7045;;;;
2023/05/20 13:07:10;;;;;;;3.7;3.2;;;;;;;24.37;52.98828;933.6856;;;;
2023/05/20 13:09:38;;;;;;;4;3.2;;;;;;;24.33;53.76172;933.7219;;;;
2023/05/20 13:12:03;;;;;;;3.5;2.9;;;;;;;24.49;52.73145;933.6278;;;;
2023/05/20 13:14:28;;;;;;;3.3;2.8;;;;;;;24.3;53.0625;933.7219;;;;
2023/05/20 13:16:54;;;;;;;3.1;2.8;;;;;;;24.42;52.21582;933.6465;;;;
2023/05/20 13:19:22;;;;;;;3.3;2.9;;;;;;;24.29;53.66113;933.6569;;;;
2023/05/20 13:21:47;;;;;;;3.9;3.2;;;;;;;24.07;54.5166;933.6397;;;;
2023/05/20 13:24:15;;;;;;;3.8;2.7;;;;;;;23.89;56.17773;933.5759;;;;
2023/05/20 13:26:40;;;;;;;3.3;3;;;;;;;23.92;57.66504;933.5647;;;;
2023/05/20 13:29:05;;;;;;;4.4;3.2;;;;;;;23.56;55.59668;933.5112;;;;
2023/05/20 13:31:30;;;;;;;3.1;2.8;;;;;;;23.46;57.34766;933.5122;;;;
2023/05/20 13:33:59;;;;;;;3.4;3.1;;;;;;;23.57;55.50391;933.4567;;;;
2023/05/20 13:36:23;;;;;;;3.2;2.9;;;;;;;23.81;53.63867;933.4891;;;;
2023/05/20 13:38:50;;;;;;;3.7;2.7;;;;;;;23.84;55.10254;933.3733;;;;
2023/05/20 13:41:14;;;;;;;3.1;2.6;;;;;;;23.94;54.29004;933.3389;;;;
2023/05/20 13:43:42;;;;;;;2.7;2.2;;;;;;;23.94;53.00781;933.2885;;;;
2023/05/20 13:46:07;;;;;;;3.4;2.5;;;;;;;24.02;53.41602;933.2271;;;;
2023/05/20 13:48:33;;;;;;;3.1;2.8;;;;;;;24.15;54.78613;933.1777;;;;
2023/05/20 13:51:00;;;;;;;2.6;2.4;;;;;;;24.16;52.34961;933.1255;;;;
2023/05/20 13:53:25;;;;;;;2.9;2.4;;;;;;;23.81;51.69727;933.1998;;;;
2023/05/20 13:55:51;;;;;;;3.1;2.4;;;;;;;23.97;53.50488;933.1139;;;;
2023/05/20 13:58:16;;;;;;;2.6;2.4;;;;;;;23.98;54.60059;933.1114;;;;
2023/05/20 14:00:41;;;;;;;3.5;2.6;;;;;;;23.81;56.23926;933.0435;;;;
2023/05/20 14:03:07;;;;;;;4;2.3;;;;;;;24.02;52.72266;933.0436;;;;
2023/05/20 14:05:33;;;;;;;2.5;2.3;;;;;;;24.03;53.59473;933.046;;;;
2023/05/20 14:07:58;;;;;;;2.6;2.3;;;;;;;23.93;52.59473;932.9767;;;;
2023/05/20 14:10:24;;;;;;;2.4;2.2;;;;;;;23.89;53.24902;933.0136;;;;
2023/05/20 14:12:50;;;;;;;3.1;2.4;;;;;;;23.97;50.93848;933.0107;;;;
2023/05/20 14:15:18;;;;;;;2.3;2.1;;;;;;;23.6;55.60156;933.0306;;;;
2023/05/20 14:17:43;;;;;;;2.4;2.2;;;;;;;23.59;53.54102;932.969;;;;
2023/05/20 14:20:14;;;;;;;2.5;2.2;;;;;;;23.3;54.94043;933.014;;;;
2023/05/20 14:22:41;;;;;;;2.5;2.3;;;;;;;23.55;54.46582;932.9691;;;;
2023/05/20 14:25:06;;;;;;;3.5;2.6;;;;;;;23.82;52.02734;932.9684;;;;
2023/05/20 14:27:31;;;;;;;3;2.4;;;;;;;23.85;52.47852;932.9832;;;;
2023/05/20 14:29:56;;;;;;;3.6;2.7;;;;;;;23.8;55.16797;932.8943;;;;
2023/05/20 14:32:23;;;;;;;3.2;2.6;;;;;;;23.56;57.0791;932.965;;;;
2023/05/20 14:34:48;;;;;;;2.6;2.3;;;;;;;23.88;52.49414;932.9158;;;;
2023/05/20 14:37:18;;;;;;;3.1;2.1;;;;;;;24.04;52.21777;932.9319;;;;
2023/05/20 14:39:43;;;;;;;2.6;2.3;;;;;;;23.97;53.16406;932.9453;;;;
2023/05/20 14:42:10;;;;;;;2.3;2.1;;;;;;;23.77;53.17676;932.9681;;;;
2023/05/20 14:44:35;;;;;;;2.4;2.2;;;;;;;23.98;51.62207;932.9894;;;;
2023/05/20 14:47:04;;;;;;;2.7;2.3;;;;;;;24.15;51.12305;932.9872;;;;
2023/05/20 14:49:29;;;;;;;2.3;2.1;;;;;;;24.1;51.30762;933.0667;;;;
2023/05/20 14:51:56;;;;;;;4.4;2.6;;;;;;;23.84;51.61816;933.1089;;;;
2023/05/20 14:54:23;;;;;;;2.9;2.1;;;;;;;23.81;52.95605;933.1379;;;;
2023/05/20 14:56:50;;;;;;;2.6;2.4;;;;;;;23.66;55.0332;933.1769;;;;
2023/05/20 14:59:15;;;;;;;2.6;2.3;;;;;;;23.53;53.61621;933.1454;;;;
2023/05/20 15:01:40;;;;;;;2.6;2.4;;;;;;;23.4;53.76563;933.0959;;;;
2023/05/20 15:04:05;;;;;;;2.5;2.2;;;;;;;23.57;55.59668;933.1097;;;;
2023/05/20 15:06:35;;;;;;;3.2;2.4;;;;;;;23.64;53.95898;933.0504;;;;
2023/05/20 15:08:58;;;;;;;2.6;2.2;;;;;;;23.6;54.9541;933.0528;;;;
2023/05/20 15:11:25;;;;;;;2.3;2.1;;;;;;;23.67;53.83398;933.0089;;;;
2023/05/20 15:13:50;;;;;;;2.3;2;;;;;;;23.36;55.01855;933.0176;;;;
2023/05/20 15:16:17;;;;;;;2.3;2.1;;;;;;;23.16;56.41602;933.0131;;;;
2023/05/20 15:18:40;;;;;;;2.4;2.2;;;;;;;23.25;55.13477;933.0311;;;;
2023/05/20 15:21:08;;;;;;;2.6;2.2;;;;;;;23.46;55.03027;933.0545;;;;
2023/05/20 15:23:33;;;;;;;2.4;2.2;;;;;;;23.19;54.11719;933.0344;;;;
2023/05/20 15:25:58;;;;;;;3.3;2.4;;;;;;;23.16;55.37012;933.0472;;;;
2023/05/20 15:28:23;;;;;;;3.4;2.3;;;;;;;23.06;56.26367;933.1516;;;;
2023/05/20 15:30:49;;;;;;;2.9;2.4;;;;;;;23.18;55.58398;933.1219;;;;
2023/05/20 15:33:14;;;;;;;2.9;2.1;;;;;;;23.16;55.46484;933.1211;;;;
2023/05/20 15:35:41;;;;;;;3;2.2;;;;;;;23.32;55.13184;933.0339;;;;
2023/05/20 15:38:06;;;;;;;3;2.3;;;;;;;23.43;53.34473;933.0619;;;;
2023/05/20 15:40:34;;;;;;;2.5;2.2;;;;;;;23.43;54.01465;933.0424;;;;
2023/05/20 15:42:59;;;;;;;2.4;2.2;;;;;;;23.43;54.25098;933.0625;;;;
2023/05/20 15:45:28;;;;;;;2.8;2.2;;;;;;;23.48;53.56348;933.0341;;;;
2023/05/20 15:47:53;;;;;;;2.2;2;;;;;;;23.37;53.26855;933.0316;;;;
2023/05/20 15:50:19;;;;;;;2.3;2.1;;;;;;;23.48;53.09277;933.0178;;;;
2023/05/20 15:52:44;;;;;;;2.3;2.1;;;;;;;23.52;52.76953;933.0854;;;;
2023/05/20 15:55:10;;;;;;;2.4;2.1;;;;;;;23.55;52.70117;933.1014;;;;
2023/05/20 15:57:39;;;;;;;2.1;1.9;;;;;;;23.61;53.50879;933.1036;;;;
2023/05/20 16:00:09;;;;;;;3.9;2.2;;;;;;;23.61;53.22656;933.0799;;;;
2023/05/20 16:02:31;;;;;;;2.8;2.4;;;;;;;23.62;52.41602;933.0689;;;;